White Hall, MD (21161)

3:44 PM EDT on September 01, 2014 (GMT -0400)
Shawsville | Change Station
CLOSE
Current Station
Personal Weather Station
Location: White Hall, MD
Elevation: 750 ft
Nearby Weather Stations

Elev 750 ft 39.65 °N, 76.56 °W | Updated 2 seconds ago

Partly Cloudy
Partly Cloudy
84.1 °F
Feels Like 89 °F
N
0.0
Wind Variable Wind from SW
Gusts 0.0 mph

Today
High -- | Low -- °F
--% Chance of Precip.
Yesterday
High -- | Low -- °F
Precip. -- in
6:34 AM 7:37 PM
Waxing Crescent, 43% visible
Pressure 29.99 in
Visibility 10.0 miles
Clouds Scattered Clouds 7000 ft
Heat Index 89 °F
Dew Point 72 °F
Humidity 66%
Rainfall 0.02 in
Snow Depth Not available.
UV 5 out of 12
Pollen 6.70 out of 12
Air Quality Not available.
Flu Activity Not available.
METAR KDMW 011925Z AUTO 22005KT 10SM SCT070 30/23 A2999 RMK AO2 LTG DSNT SW

More Conditions Fewer Conditions

Pressure 29.99 in
Visibility 10.0 miles
Clouds Scattered Clouds 7000 ft
Heat Index 89 °F
Dew Point 72 °F
Humidity 66%
Rainfall 0.02 in
Snow Depth Not available.
UV 5 out of 12
Pollen 6.70 out of 12
Air Quality Not available.
Flu Activity Not available.
METAR KDMW 011925Z AUTO 22005KT 10SM SCT070 30/23 A2999 RMK AO2 LTG DSNT SW

More Conditions Fewer Conditions

10-Day Weather Forecast

Almanac

Astronomy

Sep. 01, 2014 Rise Set
Actual Time 6:34 AM EDT 7:37 PM EDT
Civil Twilight 6:06 AM EDT 8:04 PM EDT
Nautical Twilight 5:33 AM EDT 8:37 PM EDT
Astronomical Twilight 4:59 AM EDT 9:11 PM EDT
Moon 1:16 PM EDT 11:38 PM EDT
Length of Visible Light 13h 58m
Length of Day
13h 03m
Tomorrow will be 2m 30s shorter.
Waxing Crescent, 43% of the Moon is Illuminated
Today
Waxing Crescent
Sep 2
First Quarter
Sep 8
Full
Sep 15
Last Quarter
Sep 24
New

Today's Extremes

State Highs State Lows

Community

WunderPhotos

Upload Photos

1,749,387 photos uploaded!

WunderBlogs® & News

Nearby

Snow Depth

Station Depth Elevation
No new snow has been reported.

Earthquake Activity

City Distance Mag. Time & Date
No recent earthquake activity has been reported nearby.
Minimum magnitude displayed is 2.5.

Coastal Water Temperatures

Place Temperature
Tolchester Beach, MD 81.0 °F
Chesapeake City, MD 80.1 °F
Baltimore, MD 81.0 °F

Nearby Weather Stations